Spirit Of Oceanus — C6PJ8 — position and weather

sailwx.info

Track history (hours):
 
Tides and Currents Weather Stations Pressure Air Temp Water Temp Dewpoint Dewpoint Depression Visibility Wind Speed Wind Dir Waves Ship Positions

Spirit Of Oceanus

Last reported at 2014-Jun-04 18:23 UTC. Time now 2014-Aug-29 12:22 UTC.
Position N 79°10' E 010°18'.
Warning: this ship's position is months out of date.

Type: Passenger vessel. MMSI: 309224000.

Date/timePositionNaut miles runAvg speedWind from/ knotsBaromVisibWave heightAir tempDewpointWater temp
2014-Jun-04 18:23N 79°10' E 010°18'  
2014-May-26 21:33N 56°49' E 003°59'22713.7
2014-May-26 05:04N 53°06' E 002°42'713.7
2014-May-26 04:33N 52°60' E 002°38'714.0
2014-May-26 04:04N 52°54' E 002°34'1114.7
2014-May-26 03:19N 52°44' E 002°24'415.2
2014-May-26 03:04N 52°41' E 002°21'815.2
2014-May-26 02:33N 52°34' E 002°15'815.7
2014-May-26 02:04N 52°27' E 002°10'815.9
2014-May-26 01:33N 52°20' E 002°04'816.2
2014-May-26 01:05N 52°13' E 001°58'916.4
2014-May-26 00:33N 52°05' E 001°53'816.8
2014-May-26 00:04N 51°57' E 001°49'816.1
2014-May-25 23:33N 51°49' E 001°48'416.0
2014-May-25 23:18N 51°45' E 001°48'1314.1
2014-May-25 22:22N 51°33' E 001°39'1012.1
2014-May-25 21:33N 51°27' E 001°26'1312.6
2014-May-25 20:32N 51°29' E 001°06'1212.5
2014-May-25 19:33N 51°29' E 000°46'1211.7
2014-May-25 18:33N 51°29' E 000°27'  
Track history (hours):
 
Tides and Currents Weather Stations Pressure Air Temp Water Temp Dewpoint Dewpoint Depression Visibility Wind Speed Wind Dir Waves Ship Positions

Spirit Of Oceanus

Last reported at 2014-Jun-04 18:23 UTC. Time now 2014-Aug-29 12:22 UTC.
Position N 79°10' E 010°18'.
Warning: this ship's position is months out of date.

Type: Passenger vessel. MMSI: 309224000.

Date/timePositionNaut miles runAvg speedWind from/ knotsBaromVisibWave heightAir tempDewpointWater temp
2014-Jun-04 18:23N 79°10' E 010°18'  
2014-May-26 21:33N 56°49' E 003°59'22713.7
2014-May-26 05:04N 53°06' E 002°42'713.7
2014-May-26 04:33N 52°60' E 002°38'714.0
2014-May-26 04:04N 52°54' E 002°34'1114.7
2014-May-26 03:19N 52°44' E 002°24'415.2
2014-May-26 03:04N 52°41' E 002°21'815.2
2014-May-26 02:33N 52°34' E 002°15'815.7
2014-May-26 02:04N 52°27' E 002°10'815.9
2014-May-26 01:33N 52°20' E 002°04'816.2
2014-May-26 01:05N 52°13' E 001°58'916.4
2014-May-26 00:33N 52°05' E 001°53'816.8
2014-May-26 00:04N 51°57' E 001°49'816.1
2014-May-25 23:33N 51°49' E 001°48'416.0
2014-May-25 23:18N 51°45' E 001°48'1314.1
2014-May-25 22:22N 51°33' E 001°39'1012.1
2014-May-25 21:33N 51°27' E 001°26'1312.6
2014-May-25 20:32N 51°29' E 001°06'1212.5
2014-May-25 19:33N 51°29' E 000°46'1211.7
2014-May-25 18:33N 51°29' E 000°27'  

Dump ship's entire track history